Lilienfeld, Austria
Current Conditions -  °F | °C
As of 11:50 AM on Saturday 25 Oct 2014 (Local Time) from LOXT Reporting Station
Broken Clouds Broken Clouds  
Wind Chill: 43°   Ceiling: 2700
Heat Index: 46°   Visibility: 8mi
Dew Point: 41°   Wind: 7mph
Humidity: 81%   Direction: 60°ENE
Pressure: 30.24"   Gusts: NA
Location:  48.01°N, 15.6°E
Report Text: LOXT 250950Z 06006KT 12KM BKN027SC 08/05 Q1024 RMK BKN
Loading
Personal Weather Stations






























Interactive Weather Map
Tropical Storm Tracking
New forecast layout! Learn more

10-Day Weather Forecast

Advertisements
Track Severe Weather on mobile